Thursday, April 26, 2018, 5:47 AM EDT
Back to Local

KBVY, Beverly Municipal Airport

Location: Danvers, MA, United States Lat: 42.583
Local Time: 5:47 AM EDT ( 9:47 GMT) Lon: -70.917
Time Zone: US/Eastern Elev: 108 ft

Show me the last for .
Show Decoded

2018-04-26 05:01 METAR KBVY 260901Z AUTO 12005KT 1/4SM FG VV002 11/11 A2957 RMK AO2 T01060106 =
2018-04-26 04:53 METAR KBVY 260853Z AUTO 12005KT 1/2SM FG VV002 11/11 A2957 RMK AO2 SLP010
                 T01110106 56014 =
2018-04-26 04:49 METAR KBVY 260849Z AUTO 12005KT 1/2SM FG VV002 11/11 A2957 RMK AO2 =
2018-04-26 04:29 METAR KBVY 260829Z AUTO 12003KT 1/4SM FG VV002 11/11 A2958 RMK AO2 T01110111 =
2018-04-26 04:19 METAR KBVY 260819Z AUTO 12005KT 1/2SM FG VV002 11/11 A2958 RMK AO2 T01060106 =
2018-04-26 04:09 METAR KBVY 260809Z AUTO 12006KT 1/4SM FG VV002 11/11 A2959 RMK AO2 T01110106 =
2018-04-26 03:53 METAR KBVY 260753Z AUTO 12006KT 1/2SM FG VV002 11/11 A2959 RMK AO2 SLP017
                 T01110106 =
2018-04-26 03:35 METAR KBVY 260735Z AUTO 13004KT 1/2SM FG VV002 11/11 A2960 RMK AO2 T01110111 =
2018-04-26 03:26 METAR KBVY 260726Z AUTO 12004KT 1/4SM FG VV002 11/11 A2960 RMK AO2 T01110106 =
2018-04-26 02:53 METAR KBVY 260653Z AUTO 14003KT 1/2SM FG VV002 11/11 A2961 RMK AO2 SLP024
                 T01060106 =
2018-04-26 02:43 METAR KBVY 260643Z AUTO 00000KT 1/4SM FG VV002 10/10 A2961 RMK AO2 T01000100 =
2018-04-26 01:53 METAR KBVY 260553Z AUTO 12004KT 1/2SM FG VV002 10/09 A2963 RMK AO2 SLP030 60016
                 T01000094 10106 20100 56026 =
2018-04-26 01:11 METAR KBVY 260511Z AUTO 11004KT 3/4SM BR VV002 10/10 A2964 RMK AO2 T01000100 =
2018-04-26 00:53 METAR KBVY 260453Z AUTO 14005KT 1 3/4SM BR OVC002 10/10 A2965 RMK AO2 RAB08E37
                 SLP036 P0002 T01000100 401220083 =
2018-04-26 00:44 METAR KBVY 260444Z AUTO 14006KT 2SM BR OVC002 10/10 A2966 RMK AO2 RAB08E37 P0002
                 T01000100 =
2018-04-26 00:22 METAR KBVY 260422Z AUTO 13009KT 3SM -RA BR OVC002 10/10 A2967 RMK AO2 RAB08
                 P0002 T01000100 =
2018-04-25 23:53 METAR KBVY 260353Z AUTO 12007KT 1 1/4SM BR OVC003 10/10 A2968 RMK AO2 RAE41
                 SLP045 P0002 T01000100 =
2018-04-25 23:37 METAR KBVY 260337Z AUTO 11008KT 1 1/2SM -RA BR OVC002 10/10 A2968 RMK AO2 P0002
                 T01000100 =
2018-04-25 23:16 METAR KBVY 260316Z AUTO 13008KT 2 1/2SM -RA BR BKN002 OVC010 10/09 A2970 RMK AO2
                 P0002 T01000094 =
2018-04-25 22:59 METAR KBVY 260259Z AUTO 11008KT 3SM -RA BR OVC002 10/09 A2971 RMK AO2 P0000
                 T01000094 =
2018-04-25 22:53 METAR KBVY 260253Z AUTO 11007KT 1 1/2SM -RA BR OVC002 10/09 A2971 RMK AO2
                 RAE19B43 SLP056 P0004 60012 T01000094 58016 =
2018-04-25 22:46 METAR KBVY 260246Z AUTO 11008KT 1 1/4SM -RA BR OVC002 10/09 A2971 RMK AO2
                 RAE19B43 P0003 T01000094 =
2018-04-25 22:37 METAR KBVY 260237Z AUTO 12004KT 2SM BR OVC002 10/10 A2972 RMK AO2 RAE19 P0001
                 T01000100 =
2018-04-25 22:30 METAR KBVY 260230Z AUTO 16003KT 1 3/4SM BR BKN002 OVC011 10/10 A2973 RMK AO2
                 RAE19 P0001 T01000100 =
2018-04-25 22:20 METAR KBVY 260220Z AUTO 13006KT 2 1/2SM BR BKN001 BKN005 OVC011 10/10 A2973 RMK
                 AO2 RAE19 P0001 T01000100 =
2018-04-25 21:53 METAR KBVY 260153Z AUTO 12007KT 9SM -RA OVC003 11/10 A2974 RMK AO2 SLP067 P0007
                 T01060100 =
2018-04-25 21:49 METAR KBVY 260149Z AUTO 11006KT 5SM -RA BR OVC003 11/10 A2974 RMK AO2 P0007 =
2018-04-25 21:09 METAR KBVY 260109Z AUTO 12005KT 2 1/2SM -RA BR OVC002 10/10 A2975 RMK AO2 P0001
                 T01000100 =
2018-04-25 20:53 METAR KBVY 260053Z AUTO 13006KT 4SM -RA BR OVC002 10/10 A2976 RMK AO2 RAB24
                 SLP072 P0001 T01000100 =
2018-04-25 20:40 METAR KBVY 260040Z AUTO 12006KT 3SM -RA BR OVC001 10/10 A2976 RMK AO2 RAB24
                 P0001 T01000100 =
2018-04-25 20:20 METAR KBVY 260020Z AUTO 12007KT 1 3/4SM BR OVC001 10/10 A2976 RMK AO2 T01000100
                 =
2018-04-25 20:11 METAR KBVY 260011Z AUTO 12007KT 2SM BR OVC001 10/10 A2976 RMK AO2 T01000100 =
2018-04-25 19:53 METAR KBVY 252353Z 12008KT 2SM BR OVC002 10/10 A2976 RMK AO2 RAE24 SLP073 LAST
                 P0001 60077 T01000100 10111 20100 56018 =
2018-04-25 19:35 METAR KBVY 252335Z 12010KT 2SM BR OVC002 10/10 A2976 RMK AO2 RAE24 P0001
                 T01000100 =
2018-04-25 19:12 METAR KBVY 252312Z 13013KT 1 1/2SM -RA BR OVC002 10/09 A2977 RMK AO2 P0001
                 T01000094 =
2018-04-25 18:53 METAR KBVY 252253Z 13013KT 2 1/2SM -RA BR OVC002 10/09 A2978 RMK AO2 SLP080
                 P0006 T01000094 =
2018-04-25 18:48 METAR KBVY 252248Z 13012KT 2 1/2SM -RA BR OVC002 10/10 A2978 RMK AO2 P0006 =
2018-04-25 18:38 METAR KBVY 252238Z 13012G21KT 3SM -RA BR OVC003 10/10 A2978 RMK AO2 P0006
                 T01000100 =
2018-04-25 18:13 METAR KBVY 252213Z 13016G19KT 2 1/2SM -RA BR BKN004 OVC010 11/11 A2980 RMK AO2
                 P0004 T01110106 =
2018-04-25 18:01 METAR KBVY 252201Z 13011G19KT 2SM RA BR BKN005 OVC010 11/11 A2981 RMK AO2 P0002
                 T01060106 =
2018-04-25 17:53 METAR KBVY 252153Z 13012G21KT 1 1/4SM +RA BR BKN004 OVC010 11/10 A2981 RMK AO2
                 SLP091 P0040 T01060100 =
2018-04-25 17:51 METAR KBVY 252151Z 12012G21KT 1 1/4SM +RA BR BKN004 OVC010 10/10 A2981 RMK AO2
                 P0038 =
2018-04-25 17:43 METAR KBVY 252143Z 11010KT 2SM RA BR OVC004 10/09 A2981 RMK AO2 P0031 T01000094
                 =
2018-04-25 17:11 METAR KBVY 252111Z 11012KT 1 1/4SM +RA BR OVC003 10/09 A2984 RMK AO2 P0012
                 T01000094 =
2018-04-25 16:53 METAR KBVY 252053Z 12011G19KT 2SM RA BR OVC003 10/09 A2985 RMK AO2 SLP104 P0011
                 60030 T01000094 56024 =
2018-04-25 16:24 METAR KBVY 252024Z 13010KT 3SM -RA BR OVC003 10/09 A2987 RMK AO2 P0004 T01000094
                 =
2018-04-25 16:17 METAR KBVY 252017Z 13011KT 2 1/2SM -RA BR OVC003 10/09 A2987 RMK AO2 P0003
                 T01000094 =
2018-04-25 16:00 METAR KBVY 252000Z 13012G20KT 3SM -RA BR OVC003 10/09 A2988 RMK AO2 P0000
                 T01000094 =
2018-04-25 15:53 METAR KBVY 251953Z 13014G20KT 2 1/2SM -RA BR OVC003 10/10 A2989 RMK AO2 SLP116
                 P0011 T01000100 =
2018-04-25 14:53 METAR KBVY 251853Z 13013KT 2 1/2SM -RA BR OVC004 11/10 A2992 RMK AO2 SLP128
                 P0008 T01060100 =
2018-04-25 14:29 METAR KBVY 251829Z 13012KT 2SM -RA BR OVC004 11/10 A2994 RMK AO2 P0005 T01060100
                 =
2018-04-25 14:02 METAR KBVY 251802Z 13010KT 1 1/2SM -RA BR OVC004 11/10 A2996 RMK AO2 P0001
                 T01060100 =
2018-04-25 13:53 METAR KBVY 251753Z 13010KT 2 1/2SM -RA BR BKN005 OVC031 11/10 A2996 RMK AO2
                 SLP142 P0002 60008 T01060100 10117 20094 56034 =
2018-04-25 12:53 METAR KBVY 251653Z 13015G23KT 9SM -RA BKN007 OVC055 12/10 A2999 RMK AO2 RAE12B48
                 SLP151 P0000 T01170100 =
2018-04-25 12:34 METAR KBVY 251634Z 13014G21KT 10SM BKN007 OVC055 12/11 A3000 RMK AO2 RAE12 P0000
                 T01170106 =
2018-04-25 12:27 METAR KBVY 251627Z 13015G21KT 10SM FEW007 OVC050 12/10 A3001 RMK AO2 RAE12 P0000
                 T01170100 =
2018-04-25 12:00 METAR KBVY 251600Z 13012KT 8SM -RA OVC060 12/11 A3002 RMK AO2 P0000 T01170106 =
2018-04-25 11:53 METAR KBVY 251553Z 12012KT 8SM -RA BKN004 OVC060 12/11 A3003 RMK AO2 SLP164
                 P0000 T01170106 =
2018-04-25 11:27 METAR KBVY 251527Z 13011KT 7SM -RA BKN004 OVC060 11/11 A3005 RMK AO2 P0000
                 T01110106 =
2018-04-25 10:53 METAR KBVY 251453Z 13012KT 6SM -RA BR BKN005 OVC045 11/10 A3006 RMK AO2 SLP176
                 P0001 60006 T01060100 58023 =
2018-04-25 10:06 METAR KBVY 251406Z 12011KT 6SM -RA BR SCT008 OVC042 11/09 A3008 RMK AO2 P0000
                 T01060094 =
2018-04-25 09:53 METAR KBVY 251353Z 12008KT 6SM -RA BR BKN042 OVC060 11/09 A3009 RMK AO2 SLP184
                 P0003 T01060094 =
2018-04-25 08:53 METAR KBVY 251253Z 11006KT 6SM -RA BR SCT060 OVC080 11/09 A3011 RMK AO2 SLP192
                 P0002 T01060094 =
2018-04-25 07:53 METAR KBVY 251153Z 08003KT 4SM -RA BR OVC039 09/08 A3013 RMK AO2 SLP199 P0003
                 60003 70003 T00940083 10111 20083 58004 =
2018-04-25 06:53 METAR KBVY 251053Z 13003KT 8SM -RA SCT050 OVC065 09/07 A3014 RMK AO2 RAB20
                 SLP203 P0000 T00940072 =
2018-04-25 05:53 METAR KBVY 250953Z AUTO 10004KT 10SM BKN110 09/04 A3014 RMK AO2 SLP201 T00890044
                 =

Support USWX by starting your Amazon purchase here.